Time;durP1;ratioP1;P1;durP2;ratioP2;P2;SDS_P1;SDS_P2;PMS_P1;PMS_P2;Temp;Humidity;BMP_temperature;BMP_pressure;BME280_temperature;BME280_humidity;BME280_pressure;Samples;Min_cycle;Max_cycle;Signal;HPM_P1;HPM_P2
2023/09/27 00:01:57;;;;;;;;;30.00;27.00;;;;;21.03;100.00;99640.81;6236458;27;98221;-63
2023/09/27 00:05:02;;;;;;;;;31.60;27.60;;;;;20.97;100.00;99644.66;6237430;28;97817;-63
2023/09/27 00:08:06;;;;;;;;;24.00;21.80;;;;;20.95;100.00;99652.34;6255163;28;96854;-63
2023/09/27 00:11:10;;;;;;;;;26.20;25.00;;;;;20.94;100.00;99647.94;6246299;27;97551;-63
2023/09/27 00:14:15;;;;;;;;;27.50;25.00;;;;;20.92;100.00;99650.13;6254565;28;96323;-63
2023/09/27 00:17:18;;;;;;;;;26.00;23.20;;;;;20.92;100.00;99647.38;6236105;28;96392;-63
2023/09/27 00:20:21;;;;;;;;;29.00;23.60;;;;;20.92;100.00;99650.94;6270882;27;96155;-63
2023/09/27 00:23:25;;;;;;;;;25.00;21.50;;;;;20.88;100.00;99655.31;6270301;27;96384;-63
2023/09/27 00:26:28;;;;;;;;;26.60;23.40;;;;;20.88;100.00;99657.22;6253119;28;96367;-63
2023/09/27 00:29:34;;;;;;;;;25.60;24.00;;;;;20.83;100.00;99657.22;6236331;28;98409;-63
2023/09/27 00:32:38;;;;;;;;;25.00;22.60;;;;;20.79;100.00;99664.34;6253245;28;96320;-63
2023/09/27 00:35:41;;;;;;;;;26.40;23.40;;;;;20.73;100.00;99664.31;6235224;28;96307;-62
2023/09/27 00:38:44;;;;;;;;;26.00;23.00;;;;;20.69;100.00;99663.22;6219536;28;96681;-62
2023/09/27 00:41:48;;;;;;;;;27.00;24.00;;;;;20.72;100.00;99661.88;6234659;28;96609;-63
2023/09/27 00:44:52;;;;;;;;;20.75;19.75;;;;;20.66;100.00;99654.72;6252891;28;96224;-63
2023/09/27 00:47:56;;;;;;;;;23.00;20.00;;;;;20.64;100.00;99657.72;6252897;28;96374;-63
2023/09/27 00:51:00;;;;;;;;;26.60;23.00;;;;;20.66;100.00;99657.47;6255930;28;96195;-62
2023/09/27 00:54:04;;;;;;;;;24.60;23.60;;;;;20.67;100.00;99653.63;6254567;27;96671;-63
2023/09/27 00:57:07;;;;;;;;;21.40;20.00;;;;;20.61;100.00;99657.44;6238024;28;96450;-62
2023/09/27 01:00:14;;;;;;;;;28.50;25.50;;;;;20.58;100.00;99656.03;6237397;28;96385;-62
2023/09/27 01:03:18;;;;;;;;;24.40;22.00;;;;;20.56;100.00;99650.03;6254012;28;96280;-63
2023/09/27 01:06:22;;;;;;;;;24.00;21.20;;;;;20.54;100.00;99652.19;6252997;28;96592;-63
2023/09/27 01:09:25;;;;;;;;;28.20;26.00;;;;;20.50;100.00;99658.47;6254764;28;96249;-63
2023/09/27 01:12:28;;;;;;;;;26.60;24.60;;;;;20.49;100.00;99665.03;6254188;28;96413;-62
2023/09/27 01:15:33;;;;;;;;;23.00;21.40;;;;;20.36;100.00;99652.69;6253230;28;96397;-62
2023/09/27 01:18:37;;;;;;;;;25.00;20.50;;;;;20.29;100.00;99655.63;6253645;28;96350;-62
2023/09/27 01:21:40;;;;;;;;;21.00;20.00;;;;;20.15;100.00;99642.66;6253845;28;96421;-63
2023/09/27 01:24:47;;;;;;;;;21.60;18.60;;;;;20.17;100.00;99662.41;6253120;28;97558;-63
2023/09/27 01:27:51;;;;;;;;;21.00;20.00;;;;;20.03;100.00;99663.97;6217007;28;96708;-62
2023/09/27 01:30:55;;;;;;;;;18.75;17.75;;;;;19.94;100.00;99666.34;6248055;28;97001;-63
2023/09/27 01:33:58;;;;;;;;;20.00;17.00;;;;;19.89;100.00;99652.63;6230216;28;96282;-63
2023/09/27 01:37:02;;;;;;;;;20.00;19.50;;;;;19.81;100.00;99659.44;6249869;28;96831;-63
2023/09/27 01:40:10;;;;;;;;;22.00;21.00;;;;;19.73;100.00;99656.38;6249510;28;96349;-63
2023/09/27 01:43:14;;;;;;;;;21.20;18.80;;;;;19.65;100.00;99654.09;6215317;28;98387;-63
2023/09/27 01:46:17;;;;;;;;;19.20;17.00;;;;;19.60;100.00;99657.63;6232160;28;96443;-63
2023/09/27 01:49:20;;;;;;;;;21.00;18.60;;;;;19.53;100.00;99658.97;6250247;28;96773;-63
2023/09/27 01:52:23;;;;;;;;;21.00;19.40;;;;;19.47;100.00;99649.88;6249088;28;96408;-63
2023/09/27 01:55:28;;;;;;;;;19.40;19.00;;;;;19.41;100.00;99661.81;6250418;28;96367;-62
2023/09/27 01:58:31;;;;;;;;;19.00;18.00;;;;;19.35;100.00;99654.69;6264876;27;96479;-63
2023/09/27 02:01:34;;;;;;;;;19.60;17.60;;;;;19.29;100.00;99650.25;6228954;28;96376;-62
2023/09/27 02:04:38;;;;;;;;;18.40;17.40;;;;;19.24;100.00;99647.47;6248494;28;96328;-63
2023/09/27 02:07:41;;;;;;;;;19.00;17.00;;;;;19.23;100.00;99651.28;6260692;27;97683;-63
2023/09/27 02:10:46;;;;;;;;;19.00;17.80;;;;;19.21;100.00;99645.22;6253794;27;96925;-63
2023/09/27 02:13:50;;;;;;;;;19.00;16.00;;;;;19.19;100.00;99639.22;6272538;27;96966;-63
2023/09/27 02:16:53;;;;;;;;;20.00;18.25;;;;;19.16;100.00;99648.75;6249137;27;96307;-62
2023/09/27 02:19:57;;;;;;;;;19.00;18.00;;;;;19.13;100.00;99646.53;6227798;28;98684;-63
2023/09/27 02:23:01;;;;;;;;;15.75;15.75;;;;;19.11;100.00;99648.69;6247309;28;96514;-63
2023/09/27 02:26:06;;;;;;;;;21.40;19.00;;;;;19.05;100.00;99644.28;6206218;27;97184;-62
2023/09/27 02:29:10;;;;;;;;;16.50;15.50;;;;;18.99;100.00;99645.31;6233120;28;96668;-62
2023/09/27 02:32:13;;;;;;;;;17.00;16.67;;;;;18.95;100.00;99634.09;6256793;27;98417;-63
2023/09/27 02:35:18;;;;;;;;;15.00;14.00;;;;;18.93;100.00;99644.44;6263024;27;97089;-62
2023/09/27 02:38:22;;;;;;;;;16.50;15.00;;;;;18.89;100.00;99635.09;6247042;28;96592;-62
2023/09/27 02:41:27;;;;;;;;;15.40;13.00;;;;;18.88;100.00;99638.91;6212645;28;97944;-63
2023/09/27 02:44:31;;;;;;;;;15.00;15.00;;;;;18.83;100.00;99638.84;6224176;28;96343;-62
2023/09/27 02:47:35;;;;;;;;;16.00;14.00;;;;;18.80;100.00;99642.13;6220919;28;97243;-62
2023/09/27 02:50:39;;;;;;;;;17.00;16.00;;;;;18.78;100.00;99643.44;6222402;28;96833;-63
2023/09/27 02:53:45;;;;;;;;;18.00;16.00;;;;;18.70;100.00;99652.09;6239588;28;96391;-63
2023/09/27 02:56:49;;;;;;;;;16.20;15.20;;;;;18.65;100.00;99650.13;6220187;28;96697;-63
2023/09/27 02:59:52;;;;;;;;;15.00;14.00;;;;;18.60;100.00;99648.19;6239997;28;96353;-63
2023/09/27 03:02:57;;;;;;;;;13.75;13.75;;;;;18.51;100.00;99646.94;6245498;27;96958;-62
2023/09/27 03:06:00;;;;;;;;;15.00;14.60;;;;;18.44;100.00;99645.47;6220400;28;96585;-63
2023/09/27 03:09:04;;;;;;;;;16.60;16.00;;;;;18.34;100.00;99642.63;6228871;27;96536;-63
2023/09/27 03:12:10;;;;;;;;;17.60;16.60;;;;;18.30;100.00;99653.22;6250582;27;96338;-63
2023/09/27 03:15:14;;;;;;;;;16.00;15.00;;;;;18.27;100.00;99651.00;6235737;28;96359;-63
2023/09/27 03:18:17;;;;;;;;;18.00;18.00;;;;;18.22;100.00;99650.13;6246823;27;97857;-63
2023/09/27 03:21:21;;;;;;;;;15.50;13.75;;;;;18.24;100.00;99653.41;6235532;28;96315;-63
2023/09/27 03:24:26;;;;;;;;;16.80;15.00;;;;;18.25;100.00;99652.31;6237045;27;97053;-62
2023/09/27 03:27:31;;;;;;;;;17.40;15.80;;;;;18.25;100.00;99657.78;6223840;28;98465;-63
2023/09/27 03:30:34;;;;;;;;;18.60;17.00;;;;;18.25;100.00;99655.88;6216469;28;96542;-62
2023/09/27 03:33:37;;;;;;;;;18.00;15.00;;;;;18.27;100.00;99655.66;6228940;28;97089;-62
2023/09/27 03:36:40;;;;;;;;;19.80;16.00;;;;;18.29;100.00;99656.19;6236738;27;98373;-63
2023/09/27 03:39:44;;;;;;;;;18.00;17.40;;;;;18.16;100.00;99641.88;6241888;28;97210;-63
2023/09/27 03:42:49;;;;;;;;;20.00;18.40;;;;;18.23;100.00;99660.75;6238166;27;96459;-62
2023/09/27 03:45:52;;;;;;;;;21.60;20.00;;;;;18.21;100.00;99656.66;6239986;28;96343;-63
2023/09/27 03:48:55;;;;;;;;;20.40;20.00;;;;;18.19;100.00;99660.44;6253415;27;96474;-63
2023/09/27 03:51:59;;;;;;;;;17.80;16.00;;;;;18.19;100.00;99667.81;6221434;28;96414;-62
2023/09/27 03:55:02;;;;;;;;;19.00;17.00;;;;;18.16;100.00;99663.69;6205862;28;99238;-63
2023/09/27 03:58:07;;;;;;;;;16.00;16.00;;;;;18.17;100.00;99657.16;6257452;27;96596;-63
2023/09/27 04:01:10;;;;;;;;;16.00;14.60;;;;;18.20;100.00;99650.38;6234102;28;96399;-63
2023/09/27 04:04:13;;;;;;;;;15.00;14.33;;;;;18.20;100.00;99653.09;6242465;28;97687;-63
2023/09/27 04:07:18;;;;;;;;;14.80;13.40;;;;;18.17;100.00;99645.41;6230859;28;96879;-62
2023/09/27 04:10:24;;;;;;;;;16.00;14.40;;;;;18.15;100.00;99653.84;6207436;28;98438;-63
2023/09/27 04:13:28;;;;;;;;;20.00;18.75;;;;;18.11;100.00;99651.88;6224871;28;96366;-64
2023/09/27 04:16:32;;;;;;;;;19.60;18.40;;;;;18.07;100.00;99654.28;6239073;27;96310;-63
2023/09/27 04:19:35;;;;;;;;;19.40;19.00;;;;;18.07;100.00;99658.94;6274164;27;96386;-62
2023/09/27 04:22:38;;;;;;;;;19.00;17.33;;;;;18.03;100.00;99658.56;6218961;27;97550;-63
2023/09/27 04:25:43;;;;;;;;;18.25;17.25;;;;;18.00;100.00;99658.25;6218374;27;96877;-63
2023/09/27 04:28:47;;;;;;;;;18.60;18.00;;;;;17.97;100.00;99648.69;6255782;27;96954;-62
2023/09/27 04:31:50;;;;;;;;;20.40;19.40;;;;;17.98;100.00;99653.06;6202214;28;98932;-63
2023/09/27 04:34:54;;;;;;;;;16.50;14.50;;;;;18.00;100.00;99644.63;6218870;27;96374;-63
2023/09/27 04:37:57;;;;;;;;;20.00;18.40;;;;;17.99;100.00;99643.78;6219347;28;97079;-62
2023/09/27 04:41:00;;;;;;;;;15.00;14.00;;;;;17.98;100.00;99644.06;6237274;27;96661;-62
2023/09/27 04:44:06;;;;;;;;;13.75;12.75;;;;;17.90;100.00;99645.31;6218219;27;96933;-62
2023/09/27 04:47:09;;;;;;;;;14.00;13.00;;;;;17.96;100.00;99657.13;6231958;28;97256;-63
2023/09/27 04:50:14;;;;;;;;;20.40;17.40;;;;;17.94;100.00;99662.81;6223044;28;98478;-63
2023/09/27 04:53:18;;;;;;;;;17.00;15.00;;;;;17.94;100.00;99665.53;6238963;27;96474;-62
2023/09/27 04:56:22;;;;;;;;;18.40;17.40;;;;;18.00;100.00;99658.25;6218610;28;96973;-62
2023/09/27 04:59:26;;;;;;;;;15.20;13.60;;;;;18.03;100.00;99661.31;6240780;27;96352;-63
2023/09/27 05:02:29;;;;;;;;;15.00;14.60;;;;;18.07;100.00;99659.75;6238845;27;96387;-63
2023/09/27 05:05:33;;;;;;;;;16.50;15.00;;;;;18.12;100.00;99664.44;6230292;28;96567;-63
2023/09/27 05:08:36;;;;;;;;;14.00;14.00;;;;;18.16;100.00;99669.16;6213108;28;96781;-63
2023/09/27 05:11:40;;;;;;;;;15.80;13.80;;;;;18.22;100.00;99670.06;6242445;27;97070;-62
2023/09/27 05:14:45;;;;;;;;;16.00;13.40;;;;;18.28;100.00;99660.84;6212482;28;97038;-63
2023/09/27 05:17:48;;;;;;;;;16.00;15.00;;;;;18.40;100.00;99668.91;6226271;27;98787;-63
2023/09/27 05:20:51;;;;;;;;;16.00;15.00;;;;;18.45;100.00;99672.53;6239033;27;96464;-62
2023/09/27 05:23:54;;;;;;;;;15.00;13.60;;;;;18.57;100.00;99666.97;6228326;27;96333;-62
2023/09/27 05:26:59;;;;;;;;;17.00;16.40;;;;;18.71;100.00;99676.44;6240972;27;96837;-63
2023/09/27 05:30:06;;;;;;;;;15.00;14.00;;;;;18.85;100.00;99674.97;6244984;27;96935;-63
2023/09/27 05:33:10;;;;;;;;;14.50;13.50;;;;;19.02;100.00;99686.59;6215738;28;96255;-63
2023/09/27 05:36:14;;;;;;;;;16.00;14.60;;;;;19.20;100.00;99687.34;6238105;28;96767;-63
2023/09/27 05:39:17;;;;;;;;;14.25;14.00;;;;;19.36;100.00;99689.13;6238290;28;96341;-62
2023/09/27 05:42:20;;;;;;;;;18.67;16.67;;;;;19.49;100.00;99691.47;6199626;28;98024;-63
2023/09/27 05:45:25;;;;;;;;;14.50;13.50;;;;;19.63;100.00;99695.44;6236349;28;96483;-62
2023/09/27 05:48:28;;;;;;;;;17.00;15.00;;;;;19.87;100.00;99695.88;6218228;28;96658;-63
2023/09/27 05:51:31;;;;;;;;;17.80;16.20;;;;;20.00;100.00;99691.84;6237790;28;96492;-63
2023/09/27 05:54:34;;;;;;;;;19.00;18.00;;;;;20.28;100.00;99702.47;6218060;28;96870;-63
2023/09/27 05:57:38;;;;;;;;;17.80;14.60;;;;;20.49;100.00;99697.91;6218943;28;97264;-63
2023/09/27 06:00:46;;;;;;;;;15.40;15.40;;;;;20.71;100.00;99698.59;6237465;27;97280;-64
2023/09/27 06:03:50;;;;;;;;;15.40;13.80;;;;;20.86;100.00;99698.63;6220477;27;96216;-63
2023/09/27 06:06:53;;;;;;;;;15.00;13.50;;;;;21.08;100.00;99701.16;6252464;27;97054;-63
2023/09/27 06:09:57;;;;;;;;;17.33;15.00;;;;;21.31;100.00;99697.09;6241529;27;96385;-63
2023/09/27 06:13:00;;;;;;;;;16.40;15.00;;;;;21.51;100.00;99697.97;6248359;27;96504;-63
2023/09/27 06:16:13;;;;;;;;;15.00;15.00;;;;;21.79;100.00;99704.84;6239579;28;97517;-63
2023/09/27 06:19:16;;;;;;;;;15.00;15.00;;;;;22.09;100.00;99703.19;6239014;28;96438;-62
2023/09/27 06:22:22;;;;;;;;;15.20;15.20;;;;;22.37;100.00;99702.56;6238307;27;96416;-63
2023/09/27 06:25:29;;;;;;;;;14.50;14.00;;;;;22.67;100.00;99705.22;6241788;27;97914;-63
2023/09/27 06:28:32;;;;;;;;;20.00;17.40;;;;;22.96;100.00;99699.91;6229623;28;96441;-63
2023/09/27 06:31:37;;;;;;;;;17.25;17.25;;;;;23.31;100.00;99702.41;6238326;27;96760;-63
2023/09/27 06:34:40;;;;;;;;;19.40;17.00;;;;;23.67;100.00;99713.19;6199649;27;96682;-63
2023/09/27 06:37:48;;;;;;;;;20.20;19.20;;;;;24.08;100.00;99708.16;6239174;27;96599;-63
2023/09/27 06:40:54;;;;;;;;;16.40;16.00;;;;;24.59;100.00;99706.53;6239241;27;96672;-63
2023/09/27 06:43:57;;;;;;;;;15.00;14.60;;;;;24.96;100.00;99705.81;6246093;27;96752;-63
2023/09/27 06:47:02;;;;;;;;;21.00;19.00;;;;;25.32;100.00;99697.00;6234765;28;96785;-63
2023/09/27 06:50:08;;;;;;;;;19.00;18.00;;;;;25.74;100.00;99702.47;6201110;28;97702;-63
2023/09/27 06:53:11;;;;;;;;;18.40;17.00;;;;;26.18;100.00;99696.44;6224252;27;97417;-63
2023/09/27 06:56:27;;;;;;;;;18.60;17.00;;;;;26.85;100.00;99701.50;6248092;27;96691;-63
2023/09/27 06:59:31;;;;;;;;;18.40;16.40;;;;;27.33;100.00;99694.34;6239581;27;96401;-63
2023/09/27 07:02:36;;;;;;;;;16.00;16.00;;;;;27.93;100.00;99696.78;6220212;28;96521;-63
2023/09/27 07:05:39;;;;;;;;;18.00;17.00;;;;;28.48;100.00;99693.69;6234671;27;96673;-64
2023/09/27 07:08:46;;;;;;;;;20.40;17.40;;;;;29.13;100.00;99690.91;6201415;28;96753;-63
2023/09/27 07:11:50;;;;;;;;;18.80;16.20;;;;;29.71;100.00;99684.94;6244565;27;96875;-63
2023/09/27 07:14:53;;;;;;;;;17.00;16.00;;;;;30.10;100.00;99675.56;6235836;27;96399;-64
2023/09/27 07:17:57;;;;;;;;;16.00;16.00;;;;;30.20;100.00;99677.97;6240024;27;96338;-63
2023/09/27 07:21:01;;;;;;;;;18.25;17.25;;;;;30.42;100.00;99679.69;6248442;27;96614;-63
2023/09/27 07:24:05;;;;;;;;;20.00;20.00;;;;;30.67;100.00;99673.19;6221463;28;96759;-63
2023/09/27 07:27:08;;;;;;;;;17.00;16.00;;;;;30.94;100.00;99681.06;6245371;27;96303;-63
2023/09/27 07:30:12;;;;;;;;;18.80;17.00;;;;;31.27;100.00;99683.16;6240615;28;96315;-63
2023/09/27 07:33:17;;;;;;;;;17.00;15.60;;;;;31.70;100.00;99674.44;6242680;28;96607;-63
2023/09/27 07:36:24;;;;;;;;;19.00;17.40;;;;;31.89;100.00;99676.72;6234648;28;98408;-64
2023/09/27 07:39:27;;;;;;;;;17.40;16.00;;;;;31.86;100.00;99677.41;6243503;27;97304;-64
2023/09/27 07:42:30;;;;;;;;;18.75;16.75;;;;;32.29;100.00;99679.75;6226196;27;96954;-63
2023/09/27 07:45:36;;;;;;;;;21.00;19.80;;;;;32.86;100.00;99688.03;6264532;27;97055;-64
2023/09/27 07:48:42;;;;;;;;;22.00;20.40;;;;;33.30;100.00;99675.06;6218308;27;97111;-63
2023/09/27 07:51:46;;;;;;;;;20.00;18.60;;;;;33.41;100.00;99688.22;6241044;27;96694;-64
2023/09/27 07:54:51;;;;;;;;;20.80;19.80;;;;;33.70;100.00;99680.66;6237971;27;96378;-63
2023/09/27 07:57:55;;;;;;;;;19.20;18.20;;;;;34.17;100.00;99670.38;6239070;28;97113;-63
2023/09/27 08:00:58;;;;;;;;;20.60;20.00;;;;;34.69;100.00;99672.16;6236899;27;96452;-63
2023/09/27 08:04:06;;;;;;;;;25.60;22.40;;;;;35.25;100.00;99680.25;6239072;28;96485;-64
2023/09/27 08:07:14;;;;;;;;;21.40;19.00;;;;;35.69;99.56;99676.03;6216705;27;96329;-64
2023/09/27 08:10:17;;;;;;;;;21.60;19.60;;;;;36.03;96.28;99671.47;6220354;28;96993;-64
2023/09/27 08:13:25;;;;;;;;;20.40;19.20;;;;;36.26;92.99;99668.72;6228241;28;96569;-65
2023/09/27 08:16:29;;;;;;;;;17.20;17.00;;;;;36.21;93.71;99672.66;6238340;28;98438;-64
2023/09/27 08:19:33;;;;;;;;;18.60;17.00;;;;;36.06;92.36;99673.53;6238753;28;96168;-64
2023/09/27 08:22:39;;;;;;;;;23.00;20.00;;;;;36.21;94.62;99669.84;6221369;27;96348;-64
2023/09/27 08:25:43;;;;;;;;;21.40;18.60;;;;;36.47;92.56;99669.88;6240684;28;96276;-64
2023/09/27 08:28:46;;;;;;;;;18.00;17.75;;;;;36.76;91.23;99675.97;6251474;27;98582;-65
2023/09/27 08:31:49;;;;;;;;;19.00;18.00;;;;;36.92;89.85;99675.81;6233794;28;96779;-64
2023/09/27 08:34:53;;;;;;;;;16.40;16.00;;;;;36.82;88.03;99674.47;6198463;28;96313;-65
2023/09/27 08:37:57;;;;;;;;;21.00;19.00;;;;;36.66;87.97;99668.19;6193246;28;96674;-65
2023/09/27 08:41:00;;;;;;;;;16.00;16.00;;;;;36.72;90.42;99675.13;6211830;28;96320;-64
2023/09/27 08:44:04;;;;;;;;;18.00;16.60;;;;;37.12;88.70;99666.13;6207328;28;97398;-64
2023/09/27 08:47:08;;;;;;;;;15.75;15.00;;;;;37.40;87.43;99672.13;6205219;28;96513;-65
2023/09/27 08:50:14;;;;;;;;;15.50;15.25;;;;;37.38;86.97;99666.06;6197139;28;97071;-64
2023/09/27 08:53:18;;;;;;;;;19.00;18.00;;;;;37.68;86.59;99655.59;6233247;27;96654;-64
2023/09/27 08:56:23;;;;;;;;;15.40;15.00;;;;;38.07;84.89;99664.50;6208175;28;96242;-65
2023/09/27 08:59:26;;;;;;;;;16.00;15.00;;;;;38.49;83.56;99658.47;6213112;28;96971;-64
2023/09/27 09:02:30;;;;;;;;;13.60;13.40;;;;;38.85;81.39;99653.94;6217280;28;96119;-65
2023/09/27 09:05:36;;;;;;;;;17.00;15.00;;;;;39.21;78.76;99654.13;6202880;28;96362;-65
2023/09/27 09:08:40;;;;;;;;;14.00;13.40;;;;;39.59;77.68;99656.34;6215330;28;96245;-64
2023/09/27 09:11:48;;;;;;;;;14.00;12.60;;;;;39.98;75.11;99655.69;6225146;28;96959;-65
2023/09/27 09:14:54;;;;;;;;;14.00;13.00;;;;;40.19;71.14;99653.72;6227164;28;96267;-64
2023/09/27 09:17:58;;;;;;;;;15.00;14.00;;;;;40.45;69.71;99654.56;6225626;28;96230;-65
2023/09/27 09:21:10;;;;;;;;;16.00;14.20;;;;;40.60;71.05;99656.97;6225640;28;96328;-65
2023/09/27 09:24:20;;;;;;;;;14.00;14.00;;;;;40.83;68.56;99645.25;6182520;28;97705;-64
2023/09/27 09:27:23;;;;;;;;;15.40;13.40;;;;;41.08;68.40;99648.03;6211883;28;96511;-65
2023/09/27 09:30:34;;;;;;;;;14.40;13.40;;;;;41.23;67.20;99645.97;6220038;28;96450;-65
2023/09/27 09:33:38;;;;;;;;;15.00;14.00;;;;;41.41;65.71;99649.53;6214472;28;97829;-64
2023/09/27 09:36:43;;;;;;;;;14.75;14.75;;;;;41.61;64.45;99642.19;6237939;27;96257;-65
2023/09/27 09:39:47;;;;;;;;;12.00;11.00;;;;;41.67;62.85;99645.41;6233086;28;96512;-65
2023/09/27 09:42:51;;;;;;;;;16.40;14.60;;;;;41.65;58.92;99642.97;6238306;28;96378;-66
2023/09/27 09:45:57;;;;;;;;;13.00;12.00;;;;;41.30;58.08;99648.78;6196633;28;96712;-65
2023/09/27 09:49:01;;;;;;;;;13.00;13.00;;;;;41.03;57.13;99645.63;6203696;28;96534;-65
2023/09/27 09:52:06;;;;;;;;;14.33;14.00;;;;;41.23;58.99;99641.13;6238455;27;96294;-64
2023/09/27 09:55:11;;;;;;;;;13.40;12.40;;;;;41.32;52.93;99641.50;6219274;28;97242;-65
2023/09/27 09:58:29;;;;;;;;;13.00;12.00;;;;;41.01;51.93;99637.50;6239769;28;96749;-65
2023/09/27 10:01:37;;;;;;;;;10.25;10.00;;;;;40.99;54.64;99637.13;6220220;28;96839;-65
2023/09/27 10:04:41;;;;;;;;;13.00;12.00;;;;;40.89;57.79;99635.13;6220438;28;97259;-64
2023/09/27 10:07:47;;;;;;;;;12.60;11.60;;;;;40.51;51.31;99639.63;6237054;28;98112;-65
2023/09/27 10:10:50;;;;;;;;;15.33;14.33;;;;;40.39;53.90;99642.84;6232702;28;96453;-65
2023/09/27 10:13:55;;;;;;;;;14.00;12.00;;;;;40.44;52.47;99641.63;6220485;28;96432;-65
2023/09/27 10:16:58;;;;;;;;;10.60;10.00;;;;;40.56;46.07;99635.56;6237414;28;96693;-65
2023/09/27 10:20:12;;;;;;;;;11.50;11.00;;;;;40.58;50.02;99633.13;6219853;28;96406;-66
2023/09/27 10:23:17;;;;;;;;;11.20;10.00;;;;;40.57;43.65;99632.31;6237233;28;96865;-65
2023/09/27 10:26:23;;;;;;;;;11.00;11.00;;;;;40.19;48.71;99631.13;6236717;28;97698;-65
2023/09/27 10:30:00;;;;;;;;;10.20;9.20;;;;;40.41;46.50;99623.47;6237791;28;96906;-66
2023/09/27 10:33:31;;;;;;;;;9.40;9.00;;;;;40.83;45.91;99631.09;6235504;28;96290;-65
2023/09/27 10:36:35;;;;;;;;;12.00;10.00;;;;;41.23;48.49;99624.16;6233801;28;98411;-66
2023/09/27 10:39:40;;;;;;;;;10.40;10.00;;;;;41.37;41.79;99621.25;6237979;28;96588;-64
2023/09/27 10:42:43;;;;;;;;;9.40;8.00;;;;;41.15;40.72;99624.59;6237688;28;96374;-66
2023/09/27 10:45:55;;;;;;;;;10.40;9.00;;;;;41.04;41.61;99622.59;6238076;27;96319;-65
2023/09/27 10:48:59;;;;;;;;;7.50;7.50;;;;;41.20;42.57;99622.13;6243005;28;96297;-65
2023/09/27 10:52:02;;;;;;;;;9.00;9.00;;;;;41.18;42.63;99618.91;6242786;27;96658;-66
2023/09/27 10:55:12;;;;;;;;;8.00;8.00;;;;;41.30;37.46;99606.34;6243379;28;96747;-65
2023/09/27 10:58:16;;;;;;;;;10.00;8.80;;;;;41.43;36.90;99618.81;6226051;28;96606;-65
2023/09/27 11:01:20;;;;;;;;;10.00;9.40;;;;;41.48;37.52;99609.91;6243224;28;96882;-64
2023/09/27 11:04:25;;;;;;;;;11.00;9.40;;;;;41.52;38.81;99607.88;6225228;28;98403;-65
2023/09/27 11:07:43;;;;;;;;;9.40;9.00;;;;;41.35;41.06;99603.06;6244070;28;96358;-64
2023/09/27 11:10:48;;;;;;;;;9.00;9.00;;;;;41.04;40.18;99599.16;6259731;27;96425;-64
2023/09/27 11:13:52;;;;;;;;;9.00;7.80;;;;;40.97;41.16;99599.97;6208873;28;96767;-65
2023/09/27 11:16:55;;;;;;;;;9.00;8.00;;;;;40.90;40.18;99591.50;6242197;28;97152;-65
2023/09/27 11:20:11;;;;;;;;;9.00;9.00;;;;;40.82;42.04;99595.56;6223760;28;96678;-65
2023/09/27 11:23:15;;;;;;;;;8.80;8.20;;;;;40.52;38.69;99589.53;6242714;27;96283;-65
2023/09/27 11:26:20;;;;;;;;;10.80;10.80;;;;;40.30;45.35;99590.78;6243250;28;96477;-65
2023/09/27 11:29:26;;;;;;;;;10.00;9.00;;;;;40.35;42.28;99588.34;6235947;28;96275;-66
2023/09/27 11:32:29;;;;;;;;;9.60;8.40;;;;;40.24;42.84;99584.72;6222474;28;99004;-65
2023/09/27 11:35:32;;;;;;;;;10.50;9.50;;;;;40.24;43.07;99587.53;6241251;28;97584;-66
2023/09/27 11:38:35;;;;;;;;;10.00;10.00;;;;;40.06;45.34;99583.88;6224146;28;96803;-66
2023/09/27 11:41:40;;;;;;;;;7.20;7.20;;;;;40.21;45.23;99583.50;6242215;28;96393;-66
2023/09/27 11:44:44;;;;;;;;;9.60;8.60;;;;;40.12;38.77;99579.44;6224687;28;96391;-66
2023/09/27 11:47:47;;;;;;;;;9.40;9.00;;;;;40.28;45.22;99574.22;6222390;28;96583;-66
2023/09/27 11:50:51;;;;;;;;;9.00;9.00;;;;;40.44;41.47;99568.16;6241529;28;97919;-66
2023/09/27 11:53:55;;;;;;;;;10.20;9.80;;;;;40.66;42.80;99566.94;6240652;27;96290;-66
2023/09/27 11:56:59;;;;;;;;;9.00;9.00;;;;;40.70;38.42;99559.25;6240445;28;96460;-66
2023/09/27 12:00:05;;;;;;;;;8.40;8.00;;;;;40.85;38.35;99560.81;6240708;28;96334;-67
2023/09/27 12:03:10;;;;;;;;;11.00;9.00;;;;;40.38;36.42;99552.81;6223892;28;97905;-66
2023/09/27 12:06:14;;;;;;;;;10.00;9.40;;;;;40.24;39.12;99559.28;6241727;28;96924;-66
2023/09/27 12:09:18;;;;;;;;;9.00;8.25;;;;;40.12;37.87;99552.03;6241372;28;96438;-65
2023/09/27 12:12:22;;;;;;;;;8.00;8.00;;;;;40.09;40.29;99538.69;6241743;28;96777;-66
2023/09/27 12:15:26;;;;;;;;;11.00;9.50;;;;;39.91;36.89;99540.72;6241666;28;96364;-66
2023/09/27 12:18:29;;;;;;;;;8.60;8.60;;;;;39.58;40.46;99539.03;6223298;28;97496;-66
2023/09/27 12:21:34;;;;;;;;;9.00;8.60;;;;;39.48;41.35;99539.81;6239580;28;96568;-66
2023/09/27 12:24:38;;;;;;;;;9.80;9.00;;;;;39.29;42.29;99534.50;6240401;27;97372;-66
2023/09/27 12:27:42;;;;;;;;;9.60;9.00;;;;;39.17;38.99;99543.31;6220821;28;96701;-66
2023/09/27 12:30:46;;;;;;;;;10.00;9.80;;;;;39.06;42.57;99537.63;6240800;28;96965;-65
2023/09/27 12:33:49;;;;;;;;;9.50;9.25;;;;;39.05;41.34;99535.22;6237497;28;96351;-66
2023/09/27 12:36:52;;;;;;;;;7.00;7.00;;;;;38.93;39.22;99534.38;6223851;28;96305;-66
2023/09/27 12:39:56;;;;;;;;;10.00;9.00;;;;;38.78;37.71;99520.56;6239722;28;96832;-66
2023/09/27 12:43:01;;;;;;;;;8.80;8.20;;;;;38.81;40.99;99531.84;6220746;28;98465;-66
2023/09/27 12:46:05;;;;;;;;;9.25;9.00;;;;;38.58;37.33;99528.53;6220744;28;97081;-65
2023/09/27 12:49:08;;;;;;;;;10.00;9.00;;;;;38.48;42.92;99532.88;6238175;28;96478;-65
2023/09/27 12:52:11;;;;;;;;;7.00;7.00;;;;;38.39;38.31;99525.94;6235400;28;97236;-65
2023/09/27 12:55:14;;;;;;;;;9.00;8.00;;;;;38.27;39.50;99513.00;6238200;28;96304;-65
2023/09/27 12:58:19;;;;;;;;;10.60;10.00;;;;;38.22;42.87;99513.34;6220349;28;96960;-65
2023/09/27 13:01:23;;;;;;;;;9.00;8.00;;;;;38.17;47.49;99522.16;6220313;28;96638;-64
2023/09/27 13:04:26;;;;;;;;;10.00;9.00;;;;;38.02;51.11;99515.63;6237308;28;96288;-64
2023/09/27 13:07:30;;;;;;;;;11.00;10.40;;;;;37.81;52.81;99507.00;6219286;28;98911;-64
2023/09/27 13:10:34;;;;;;;;;9.00;9.00;;;;;37.64;48.67;99510.44;6236416;27;96421;-65
2023/09/27 13:13:39;;;;;;;;;10.00;10.00;;;;;37.36;43.66;99501.69;6236331;28;97195;-66
2023/09/27 13:16:42;;;;;;;;;10.00;9.60;;;;;36.87;48.12;99506.34;6230943;28;97209;-65
2023/09/27 13:19:45;;;;;;;;;11.00;10.50;;;;;36.70;50.07;99504.09;6236084;28;96364;-65
2023/09/27 13:22:49;;;;;;;;;10.40;9.00;;;;;36.59;50.31;99499.50;6234628;27;97073;-66
2023/09/27 13:25:53;;;;;;;;;7.00;7.00;;;;;36.55;51.44;99493.84;6235986;28;96941;-66
2023/09/27 13:28:57;;;;;;;;;11.00;10.00;;;;;36.47;49.36;99486.50;6238068;28;96590;-66
2023/09/27 13:32:01;;;;;;;;;9.00;8.00;;;;;36.20;47.82;99482.91;6231235;28;96614;-65
2023/09/27 13:35:05;;;;;;;;;9.40;9.00;;;;;36.22;50.46;99482.50;6234774;28;96412;-65
2023/09/27 13:38:10;;;;;;;;;8.60;8.00;;;;;36.11;49.79;99467.50;6219435;28;96821;-65
2023/09/27 13:41:15;;;;;;;;;7.80;7.80;;;;;35.82;46.43;99464.25;6238160;28;96726;-65
2023/09/27 13:44:20;;;;;;;;;10.60;10.00;;;;;35.65;54.09;99475.94;6214857;27;97471;-65
2023/09/27 13:47:23;;;;;;;;;12.50;10.50;;;;;35.20;53.60;99462.72;6231439;28;97728;-65
2023/09/27 13:50:27;;;;;;;;;8.00;8.00;;;;;34.99;53.43;99467.91;6236010;27;96695;-65
2023/09/27 13:53:30;;;;;;;;;11.60;10.60;;;;;34.77;60.45;99467.44;6244445;27;96305;-64
2023/09/27 13:56:34;;;;;;;;;9.00;8.33;;;;;34.92;58.82;99468.56;6233412;28;96367;-64
2023/09/27 13:59:39;;;;;;;;;10.00;7.80;;;;;35.16;61.81;99457.00;6239493;28;96571;-64
2023/09/27 14:02:43;;;;;;;;;11.20;10.20;;;;;35.29;61.00;99451.25;6214922;28;96702;-64
2023/09/27 14:05:46;;;;;;;;;11.50;10.75;;;;;35.21;63.32;99444.72;6252771;27;97141;-64